Time;durP1;ratioP1;P1;durP2;ratioP2;P2;SDS_P1;SDS_P2;PMS_P1;PMS_P2;Temp;Humidity;BMP_temperature;BMP_pressure;BME280_temperature;BME280_humidity;BME280_pressure;Samples;Min_cycle;Max_cycle;Signal;HPM_P1;HPM_P2
2024/03/29 01:43:10;;;;;;;;;;;;;;;7.64;60.34;96434.41;5054459;28;19991;-86
2024/03/29 01:45:57;;;;;;;;;;;;;;;7.70;59.95;96427.66;5068048;28;19924;-86
2024/03/29 01:48:46;;;;;;;;;;;;;;;7.79;59.72;96406.00;5044589;28;20303;-86
2024/03/29 01:51:35;;;;;;;;;;;;;;;7.78;59.50;96413.31;5057517;28;20376;-86
2024/03/29 01:54:23;;;;;;;;;;;;;;;7.74;59.43;96417.78;5031630;28;19932;-86
2024/03/29 01:57:10;;;;;;;;;;;;;;;7.74;59.77;96422.41;5062825;28;19931;-85
2024/03/29 01:59:57;;;;;;;;;;;;;;;7.76;59.23;96425.56;5078301;28;20022;-85
2024/03/29 02:02:44;;;;;;;;;;;;;;;7.83;59.34;96426.63;5057380;28;19924;-86
2024/03/29 02:05:33;;;;;;;;;;;;;;;7.93;58.75;96419.22;5042607;28;19925;-85
2024/03/29 02:08:21;;;;;;;;;;;;;;;7.84;58.86;96411.22;5068637;28;19978;-86
2024/03/29 02:11:09;;;;;;;;;;;;;;;7.86;59.05;96408.94;5069652;28;19925;-86
2024/03/29 02:13:56;;;;;;;;;;;;;;;7.82;59.04;96408.81;5054704;28;19963;-86
2024/03/29 02:16:43;;;;;;;;;;;;;;;7.91;59.04;96400.63;5053820;28;19928;-85
2024/03/29 02:19:31;;;;;;;;;;;;;;;7.93;58.81;96403.00;5056566;28;19924;-85
2024/03/29 02:22:20;;;;;;;;;;;;;;;7.95;58.43;96406.19;5052004;28;20027;-85
2024/03/29 02:25:10;;;;;;;;;;;;;;;7.96;58.48;96399.66;5033731;28;19925;-83
2024/03/29 02:27:57;;;;;;;;;;;;;;;7.90;58.24;96409.88;5035598;28;19924;-85
2024/03/29 02:30:44;;;;;;;;;;;;;;;7.96;58.90;96407.75;5044453;28;19924;-85
2024/03/29 02:33:35;;;;;;;;;;;;;;;8.00;57.86;96397.88;5087287;28;19924;-84
2024/03/29 02:36:22;;;;;;;;;;;;;;;8.01;57.74;96405.66;5043408;28;19986;-82
2024/03/29 02:39:11;;;;;;;;;;;;;;;8.03;57.54;96397.97;5050373;28;19929;-88
2024/03/29 02:41:59;;;;;;;;;;;;;;;7.91;57.30;96380.91;5095663;28;20160;-88
2024/03/29 02:44:47;;;;;;;;;;;;;;;7.99;57.86;96380.03;5060439;28;19938;-87
2024/03/29 02:47:34;;;;;;;;;;;;;;;7.98;57.82;96378.47;5057574;28;20389;-87
2024/03/29 02:50:21;;;;;;;;;;;;;;;8.00;57.08;96382.44;5033331;28;19924;-87
2024/03/29 02:53:08;;;;;;;;;;;;;;;7.96;56.87;96375.31;5059082;28;19932;-86
2024/03/29 02:55:55;;;;;;;;;;;;;;;8.00;57.35;96376.25;5044005;28;19975;-88
2024/03/29 02:58:44;;;;;;;;;;;;;;;8.02;56.61;96373.97;5045080;28;20014;-88
2024/03/29 03:01:30;;;;;;;;;;;;;;;8.07;57.12;96376.47;5049070;28;20379;-87
2024/03/29 03:04:17;;;;;;;;;;;;;;;8.08;56.27;96378.84;5079349;28;20300;-87
2024/03/29 03:13:12;;;;;;;;;;;;;;;8.08;56.31;96359.13;5045352;28;19931;-87
2024/03/29 03:16:00;;;;;;;;;;;;;;;8.10;56.22;96371.22;5055340;28;19928;-87
2024/03/29 03:18:47;;;;;;;;;;;;;;;8.14;55.88;96361.28;5046425;28;19932;-87
2024/03/29 03:21:34;;;;;;;;;;;;;;;8.05;55.74;96355.19;5040233;28;19925;-87
2024/03/29 03:24:22;;;;;;;;;;;;;;;8.06;55.56;96353.28;5043274;28;20490;-87
2024/03/29 03:27:08;;;;;;;;;;;;;;;8.17;56.29;96348.25;5046219;28;20631;-87
2024/03/29 03:29:56;;;;;;;;;;;;;;;8.20;56.57;96348.34;5039567;28;19924;-87
2024/03/29 03:32:43;;;;;;;;;;;;;;;8.18;55.90;96353.31;5051538;28;19948;-87
2024/03/29 03:35:31;;;;;;;;;;;;;;;8.29;55.33;96367.19;5043876;28;19931;-87
2024/03/29 03:38:17;;;;;;;;;;;;;;;8.21;55.94;96376.22;5069278;28;20384;-86
2024/03/29 03:41:05;;;;;;;;;;;;;;;8.21;55.89;96371.59;5060535;28;19928;-87
2024/03/29 03:43:51;;;;;;;;;;;;;;;8.29;55.34;96367.19;5067948;28;20386;-86
2024/03/29 03:46:39;;;;;;;;;;;;;;;8.23;55.24;96374.75;5057437;28;20012;-87
2024/03/29 03:49:27;;;;;;;;;;;;;;;8.29;54.60;96368.00;5046473;28;19925;-83
2024/03/29 03:52:14;;;;;;;;;;;;;;;8.21;54.56;96355.34;5059783;28;19931;-86
2024/03/29 03:55:00;;;;;;;;;;;;;;;8.17;54.79;96364.47;5053861;28;19924;-87
2024/03/29 03:57:47;;;;;;;;;;;;;;;8.28;55.04;96374.53;5060714;28;20447;-85
2024/03/29 04:00:33;;;;;;;;;;;;;;;8.23;55.10;96372.03;5063506;28;20319;-86
2024/03/29 04:03:21;;;;;;;;;;;;;;;8.27;53.86;96370.25;5075174;28;19924;-85
2024/03/29 04:06:09;;;;;;;;;;;;;;;8.31;55.08;96381.19;5052825;28;20398;-86
2024/03/29 04:08:56;;;;;;;;;;;;;;;8.28;54.52;96365.63;5048417;28;19924;-86
2024/03/29 04:11:42;;;;;;;;;;;;;;;8.31;54.20;96359.53;5045165;28;20030;-86
2024/03/29 04:14:29;;;;;;;;;;;;;;;8.37;53.67;96352.84;5063800;28;20015;-86
2024/03/29 04:17:15;;;;;;;;;;;;;;;8.32;54.24;96355.72;5048986;28;19951;-86
2024/03/29 04:20:03;;;;;;;;;;;;;;;8.39;54.42;96364.91;5051782;28;19925;-86
2024/03/29 04:22:50;;;;;;;;;;;;;;;8.44;53.86;96365.81;5064552;28;19935;-86
2024/03/29 04:25:38;;;;;;;;;;;;;;;8.35;54.26;96360.44;5059567;28;19951;-85
2024/03/29 04:28:24;;;;;;;;;;;;;;;8.35;53.44;96345.00;5055855;28;19924;-91
2024/03/29 04:31:12;;;;;;;;;;;;;;;8.31;53.65;96354.94;5037859;28;19932;-92
2024/03/29 04:34:01;;;;;;;;;;;;;;;8.29;53.41;96359.09;5043196;28;19924;-90
2024/03/29 04:36:49;;;;;;;;;;;;;;;8.21;54.25;96377.00;5051696;28;19928;-93
2024/03/29 04:39:37;;;;;;;;;;;;;;;8.30;53.92;96393.13;5058270;28;19924;-91
2024/03/29 04:42:24;;;;;;;;;;;;;;;8.30;54.16;96391.22;5054294;28;19925;-91
2024/03/29 04:45:12;;;;;;;;;;;;;;;8.38;54.24;96398.50;5039292;28;19932;-90
2024/03/29 04:48:00;;;;;;;;;;;;;;;8.33;53.72;96417.63;5039232;28;19936;-91
2024/03/29 04:50:47;;;;;;;;;;;;;;;8.35;52.95;96415.34;5043256;28;20027;-90
2024/03/29 04:53:36;;;;;;;;;;;;;;;8.38;53.05;96387.69;5032431;28;19932;-90
2024/03/29 04:56:24;;;;;;;;;;;;;;;8.30;53.11;96396.63;5043497;28;19931;-91
2024/03/29 04:59:13;;;;;;;;;;;;;;;8.38;53.94;96397.72;5066840;28;20010;-78
2024/03/29 05:02:00;;;;;;;;;;;;;;;8.34;53.11;96421.09;5076642;28;19928;-78
2024/03/29 05:04:47;;;;;;;;;;;;;;;8.37;53.39;96429.41;5034568;28;20387;-78
2024/03/29 05:07:37;;;;;;;;;;;;;;;8.44;53.24;96431.56;5049299;28;20016;-79
2024/03/29 05:10:24;;;;;;;;;;;;;;;8.51;53.25;96444.53;5047132;28;20103;-78
2024/03/29 05:13:12;;;;;;;;;;;;;;;8.65;53.14;96429.59;5032254;28;19982;-78
2024/03/29 05:16:00;;;;;;;;;;;;;;;8.61;53.02;96455.75;5031249;28;20296;-79
2024/03/29 05:18:47;;;;;;;;;;;;;;;8.73;53.10;96446.84;5075031;28;19978;-79
2024/03/29 05:21:35;;;;;;;;;;;;;;;8.81;52.60;96448.69;5049040;28;19960;-77
2024/03/29 05:24:22;;;;;;;;;;;;;;;8.91;52.18;96445.56;5065658;28;19924;-77
2024/03/29 05:27:09;;;;;;;;;;;;;;;9.09;51.27;96454.25;5050446;28;19924;-78
2024/03/29 05:29:59;;;;;;;;;;;;;;;9.15;51.92;96468.38;5044334;28;19928;-78
2024/03/29 05:32:46;;;;;;;;;;;;;;;9.22;50.91;96462.44;5041953;28;19934;-78
2024/03/29 05:35:34;;;;;;;;;;;;;;;9.32;50.49;96484.44;5057547;28;19931;-79
2024/03/29 05:38:22;;;;;;;;;;;;;;;9.34;49.97;96474.06;5054983;28;19963;-93
2024/03/29 05:41:09;;;;;;;;;;;;;;;9.26;50.71;96461.38;5085739;28;19925;-93
2024/03/29 05:43:56;;;;;;;;;;;;;;;9.30;51.17;96462.31;5046106;28;19924;-91
2024/03/29 05:46:46;;;;;;;;;;;;;;;9.25;50.22;96427.28;5040062;28;19925;-89
2024/03/29 05:49:33;;;;;;;;;;;;;;;9.00;51.35;96447.34;5045508;28;20376;-88
2024/03/29 05:52:23;;;;;;;;;;;;;;;9.23;50.31;96421.44;5057730;28;20402;-88
2024/03/29 05:55:12;;;;;;;;;;;;;;;9.13;50.62;96427.28;5041924;28;19979;-91
2024/03/29 05:58:01;;;;;;;;;;;;;;;8.99;51.69;96449.28;5040110;28;19931;-86
2024/03/29 06:00:49;;;;;;;;;;;;;;;9.15;51.16;96455.63;5032777;28;19932;-94
2024/03/29 06:03:40;;;;;;;;;;;;;;;9.37;50.20;96429.22;5029330;28;19931;-86
2024/03/29 06:06:29;;;;;;;;;;;;;;;9.11;51.55;96462.06;5028501;28;19952;-87
2024/03/29 06:09:17;;;;;;;;;;;;;;;9.09;52.04;96469.72;5034032;28;19932;-83
2024/03/29 06:12:07;;;;;;;;;;;;;;;9.28;51.65;96461.84;5057408;28;19924;-79
2024/03/29 06:17:59;;;;;;;;;;;;;;;9.39;50.98;96473.84;5065410;28;20494;-86
2024/03/29 06:20:48;;;;;;;;;;;;;;;9.39;50.54;96422.34;5045285;28;20451;-86
2024/03/29 06:23:37;;;;;;;;;;;;;;;9.29;51.60;96466.16;5052575;28;19924;-85
2024/03/29 06:26:26;;;;;;;;;;;;;;;9.27;51.32;96460.28;5067665;23;19931;-84
2024/03/29 06:29:13;;;;;;;;;;;;;;;9.49;50.67;96456.34;5062256;28;20209;-77
2024/03/29 06:32:00;;;;;;;;;;;;;;;9.69;49.65;96430.19;5047171;28;19947;-77
2024/03/29 06:34:47;;;;;;;;;;;;;;;9.49;50.24;96479.94;5063268;28;19932;-76
2024/03/29 06:37:36;;;;;;;;;;;;;;;9.64;49.98;96449.41;5060273;28;20304;-76
2024/03/29 06:40:23;;;;;;;;;;;;;;;9.67;50.41;96452.25;5058351;28;19928;-79
2024/03/29 06:43:12;;;;;;;;;;;;;;;9.81;50.00;96451.91;5062831;28;19939;-78
2024/03/29 06:45:59;;;;;;;;;;;;;;;9.85;49.87;96452.78;5068681;28;19971;-79
2024/03/29 06:48:46;;;;;;;;;;;;;;;9.88;49.15;96438.53;5058561;28;19924;-81
2024/03/29 06:51:33;;;;;;;;;;;;;;;9.77;49.63;96437.44;5083521;28;19954;-85
2024/03/29 06:54:26;;;;;;;;;;;;;;;9.92;49.45;96423.16;5083014;28;19928;-85
2024/03/29 06:57:17;;;;;;;;;;;;;;;9.93;49.78;96421.22;5096268;28;19947;-86
2024/03/29 07:00:04;;;;;;;;;;;;;;;10.21;47.83;96421.25;5076234;28;20000;-83
2024/03/29 07:02:51;;;;;;;;;;;;;;;9.95;49.03;96419.75;5061734;28;19925;-84
2024/03/29 07:05:38;;;;;;;;;;;;;;;10.05;49.16;96406.84;5060919;28;20014;-86
2024/03/29 07:08:28;;;;;;;;;;;;;;;10.11;48.85;96397.31;5074218;28;20464;-83
2024/03/29 07:11:16;;;;;;;;;;;;;;;10.08;49.22;96403.44;5065611;28;19924;-79
2024/03/29 07:14:05;;;;;;;;;;;;;;;10.25;48.80;96395.03;5065364;28;19924;-77
2024/03/29 07:16:52;;;;;;;;;;;;;;;10.31;48.75;96384.72;5052029;28;19948;-82
2024/03/29 07:19:39;;;;;;;;;;;;;;;10.32;48.34;96389.00;5060207;28;19928;-76
2024/03/29 07:22:27;;;;;;;;;;;;;;;10.38;47.80;96391.13;5077727;28;20292;-84
2024/03/29 07:25:17;;;;;;;;;;;;;;;10.55;47.89;96390.03;5076279;28;19983;-76
2024/03/29 07:28:06;;;;;;;;;;;;;;;10.55;47.53;96389.25;5071575;28;19925;-77
2024/03/29 07:30:53;;;;;;;;;;;;;;;10.68;46.65;96398.91;5061004;28;19974;-79
2024/03/29 07:33:40;;;;;;;;;;;;;;;10.71;46.22;96385.41;5059304;28;19928;-76
2024/03/29 07:36:31;;;;;;;;;;;;;;;10.81;45.68;96392.25;5067349;28;19931;-77
2024/03/29 07:39:18;;;;;;;;;;;;;;;10.85;45.60;96387.69;5064245;28;19928;-75
2024/03/29 07:42:05;;;;;;;;;;;;;;;10.95;44.72;96389.88;5069915;28;19936;-76
2024/03/29 07:44:53;;;;;;;;;;;;;;;10.96;45.09;96407.75;5078881;28;20351;-76
2024/03/29 07:47:42;;;;;;;;;;;;;;;10.97;45.16;96431.09;5056582;28;20008;-76
2024/03/29 07:50:29;;;;;;;;;;;;;;;11.05;44.91;96436.72;5075264;28;20027;-75
2024/03/29 07:53:16;;;;;;;;;;;;;;;11.06;44.67;96395.59;5055256;28;19976;-81
2024/03/29 07:56:04;;;;;;;;;;;;;;;11.01;44.66;96399.34;5070832;28;19932;-78
2024/03/29 07:58:51;;;;;;;;;;;;;;;11.01;45.57;96415.66;5072653;28;19932;-87
2024/03/29 08:01:41;;;;;;;;;;;;;;;11.02;45.36;96444.44;5061143;28;20268;-84
2024/03/29 08:04:28;;;;;;;;;;;;;;;11.19;43.96;96434.34;5077340;28;19925;-85
2024/03/29 08:07:16;;;;;;;;;;;;;;;11.23;44.47;96414.25;5072668;28;19991;-93
2024/03/29 08:10:03;;;;;;;;;;;;;;;11.36;44.68;96398.66;5062962;28;19939;-86
2024/03/29 08:12:50;;;;;;;;;;;;;;;11.46;45.07;96398.09;5075315;28;19928;-96
2024/03/29 08:15:38;;;;;;;;;;;;;;;11.64;44.40;96414.03;5050484;28;19931;-95
2024/03/29 08:18:27;;;;;;;;;;;;;;;11.75;44.75;96409.63;5104531;28;19915;-93
2024/03/29 08:21:14;;;;;;;;;;;;;;;11.91;44.74;96406.88;5085774;28;19934;-96
2024/03/29 08:24:01;;;;;;;;;;;;;;;12.05;43.70;96402.53;5063361;28;19947;-94
2024/03/29 08:26:49;;;;;;;;;;;;;;;12.17;44.29;96408.97;5069180;28;19935;-76
2024/03/29 08:29:36;;;;;;;;;;;;;;;12.22;44.21;96400.53;5064656;28;19931;-80
2024/03/29 08:32:23;;;;;;;;;;;;;;;12.19;43.23;96401.22;5060626;28;19924;-79
2024/03/29 08:35:12;;;;;;;;;;;;;;;12.26;44.26;96395.94;5067596;28;19950;-79
2024/03/29 08:37:59;;;;;;;;;;;;;;;12.29;42.82;96376.94;5055093;28;20354;-80
2024/03/29 08:40:47;;;;;;;;;;;;;;;12.33;43.46;96363.41;5054376;28;19973;-80
2024/03/29 08:43:35;;;;;;;;;;;;;;;12.32;43.45;96361.84;5066795;28;20398;-80
2024/03/29 08:46:24;;;;;;;;;;;;;;;12.38;44.27;96365.84;5058295;28;20428;-79
2024/03/29 08:49:11;;;;;;;;;;;;;;;12.44;43.13;96369.84;5056984;28;19999;-80
2024/03/29 08:52:04;;;;;;;;;;;;;;;12.37;44.34;96371.66;5055819;28;20572;-80
2024/03/29 08:54:51;;;;;;;;;;;;;;;12.35;43.98;96382.09;5069664;28;19924;-80
2024/03/29 08:57:39;;;;;;;;;;;;;;;12.35;44.57;96393.78;5073952;28;19982;-80
2024/03/29 09:00:26;;;;;;;;;;;;;;;12.36;44.97;96400.00;5065629;28;19924;-80
2024/03/29 09:03:13;;;;;;;;;;;;;;;12.26;46.07;96428.63;5057925;28;19925;-85
2024/03/29 09:06:01;;;;;;;;;;;;;;;12.23;47.10;96451.09;5057901;28;20054;-85
2024/03/29 09:08:50;;;;;;;;;;;;;;;12.17;48.31;96463.44;5057193;28;19951;-86
2024/03/29 09:11:38;;;;;;;;;;;;;;;12.21;49.87;96462.38;5055872;28;19960;-87
2024/03/29 09:14:26;;;;;;;;;;;;;;;12.03;50.81;96470.13;5065485;28;19977;-89
2024/03/29 09:17:13;;;;;;;;;;;;;;;12.04;50.49;96457.34;5062134;28;19924;-88
2024/03/29 09:20:00;;;;;;;;;;;;;;;11.87;53.97;96480.25;5053273;28;19925;-85
2024/03/29 09:22:50;;;;;;;;;;;;;;;11.74;54.86;96501.34;5051847;28;19924;-85
2024/03/29 09:25:41;;;;;;;;;;;;;;;11.77;55.52;96491.66;5061687;28;20021;-85
2024/03/29 09:28:28;;;;;;;;;;;;;;;11.63;57.70;96499.50;5076304;28;19924;-85
2024/03/29 09:31:15;;;;;;;;;;;;;;;11.64;58.46;96512.75;5069236;28;20291;-85
2024/03/29 09:34:03;;;;;;;;;;;;;;;11.67;59.66;96522.94;5060958;28;19924;-85
2024/03/29 09:36:50;;;;;;;;;;;;;;;11.56;61.40;96519.16;5069627;28;19974;-85
2024/03/29 09:39:37;;;;;;;;;;;;;;;11.47;62.07;96529.44;5065800;28;20019;-85
2024/03/29 09:42:30;;;;;;;;;;;;;;;11.51;62.60;96538.47;5052950;28;20003;-85
2024/03/29 09:45:17;;;;;;;;;;;;;;;11.46;61.32;96539.50;5057498;28;19925;-86
2024/03/29 09:48:08;;;;;;;;;;;;;;;11.49;63.04;96538.81;5079816;28;19927;-86
2024/03/29 09:50:55;;;;;;;;;;;;;;;11.57;61.79;96537.06;5072162;28;19930;-85
2024/03/29 09:53:43;;;;;;;;;;;;;;;11.54;63.66;96530.38;5061700;28;19928;-84
2024/03/29 09:56:30;;;;;;;;;;;;;;;11.59;62.94;96525.81;5068866;28;19924;-85
2024/03/29 09:59:19;;;;;;;;;;;;;;;11.58;63.76;96524.25;5057874;28;20403;-86
2024/03/29 10:02:13;;;;;;;;;;;;;;;11.59;62.82;96523.09;5057087;28;19924;-87
2024/03/29 10:05:02;;;;;;;;;;;;;;;11.60;62.56;96524.69;5055911;28;20288;-86
2024/03/29 10:07:49;;;;;;;;;;;;;;;11.56;64.14;96546.38;5056418;28;19925;-86
2024/03/29 10:10:37;;;;;;;;;;;;;;;11.64;64.28;96559.00;5060812;28;19930;-85
2024/03/29 10:13:24;;;;;;;;;;;;;;;11.86;62.88;96535.06;5059493;28;19971;-86
2024/03/29 10:16:18;;;;;;;;;;;;;;;11.68;63.05;96534.59;5067148;28;19951;-87
2024/03/29 10:19:07;;;;;;;;;;;;;;;11.74;64.00;96523.09;5054611;28;20019;-79
2024/03/29 10:21:54;;;;;;;;;;;;;;;11.79;63.47;96519.31;5055066;28;19932;-79
2024/03/29 10:24:41;;;;;;;;;;;;;;;11.73;63.60;96504.41;5042074;28;20282;-79
2024/03/29 10:27:29;;;;;;;;;;;;;;;11.53;63.81;96479.84;5057292;28;20349;-79
2024/03/29 10:30:19;;;;;;;;;;;;;;;11.64;63.22;96465.72;5062720;28;20062;-80
2024/03/29 10:33:10;;;;;;;;;;;;;;;11.67;62.72;96448.69;5064419;28;19924;-80
2024/03/29 10:35:59;;;;;;;;;;;;;;;11.67;64.58;96470.47;5078591;28;19925;-79
2024/03/29 10:38:47;;;;;;;;;;;;;;;11.73;65.82;96497.03;5057042;28;20418;-79
2024/03/29 10:41:34;;;;;;;;;;;;;;;11.81;65.08;96500.69;5061023;28;19931;-79
2024/03/29 10:44:22;;;;;;;;;;;;;;;11.95;65.60;96501.06;5063323;28;19935;-79
2024/03/29 10:47:09;;;;;;;;;;;;;;;12.06;64.84;96495.88;5054113;28;19931;-80
2024/03/29 10:49:58;;;;;;;;;;;;;;;12.02;66.07;96501.22;5063765;28;19924;-81
2024/03/29 10:52:45;;;;;;;;;;;;;;;12.00;66.77;96497.28;5076673;28;19928;-80
2024/03/29 10:55:33;;;;;;;;;;;;;;;12.07;65.82;96492.78;5056669;28;19951;-80
2024/03/29 10:58:24;;;;;;;;;;;;;;;12.14;65.84;96485.91;5073705;28;19931;-80
2024/03/29 11:01:12;;;;;;;;;;;;;;;12.21;66.87;96500.47;5072302;28;19939;-79
2024/03/29 11:04:03;;;;;;;;;;;;;;;12.30;66.19;96494.81;5080280;28;19995;-79
2024/03/29 11:06:55;;;;;;;;;;;;;;;12.32;66.34;96478.94;5058017;28;19932;-79
2024/03/29 11:09:42;;;;;;;;;;;;;;;12.32;66.98;96468.03;5055194;28;19924;-79
2024/03/29 11:12:30;;;;;;;;;;;;;;;12.23;67.54;96470.16;5072723;28;19924;-79
2024/03/29 11:15:19;;;;;;;;;;;;;;;12.21;65.84;96467.03;5063948;28;20291;-79
2024/03/29 11:18:06;;;;;;;;;;;;;;;12.21;65.60;96469.75;5073566;28;19931;-79
2024/03/29 11:20:54;;;;;;;;;;;;;;;12.01;66.95;96461.53;5072513;28;19929;-80
2024/03/29 11:23:42;;;;;;;;;;;;;;;12.05;66.73;96446.09;5060884;28;19929;-79
2024/03/29 11:26:30;;;;;;;;;;;;;;;12.10;65.50;96434.13;5058044;28;20252;-80
2024/03/29 11:29:21;;;;;;;;;;;;;;;11.99;66.28;96433.91;5063921;28;19924;-89
2024/03/29 11:32:08;;;;;;;;;;;;;;;12.00;65.36;96426.53;5063106;28;19924;-88
2024/03/29 11:34:56;;;;;;;;;;;;;;;11.91;65.02;96417.75;5050700;28;20260;-88
2024/03/29 11:37:43;;;;;;;;;;;;;;;12.07;64.99;96427.44;5060845;28;19931;-88
2024/03/29 11:40:32;;;;;;;;;;;;;;;12.19;65.08;96406.69;5075080;28;19928;-86
2024/03/29 11:43:20;;;;;;;;;;;;;;;12.30;64.41;96408.50;5063233;28;19924;-85
2024/03/29 11:46:09;;;;;;;;;;;;;;;12.26;64.69;96425.91;5074147;28;19931;-86
2024/03/29 11:48:56;;;;;;;;;;;;;;;12.32;65.36;96443.53;5065188;28;19924;-85
2024/03/29 11:51:43;;;;;;;;;;;;;;;12.47;66.12;96461.72;5055617;28;19972;-84
2024/03/29 11:54:36;;;;;;;;;;;;;;;12.54;64.99;96444.75;5077458;28;19927;-86
2024/03/29 11:57:25;;;;;;;;;;;;;;;12.74;63.15;96448.25;5069095;28;19928;-85
2024/03/29 12:00:13;;;;;;;;;;;;;;;12.75;64.26;96450.59;5049994;28;20435;-86
2024/03/29 12:03:00;;;;;;;;;;;;;;;12.78;64.14;96433.53;5045980;28;19963;-86
2024/03/29 12:05:48;;;;;;;;;;;;;;;12.84;63.67;96448.44;5076088;28;19928;-85
2024/03/29 12:08:36;;;;;;;;;;;;;;;12.89;63.47;96438.38;5062376;28;19924;-86
2024/03/29 12:11:24;;;;;;;;;;;;;;;12.91;62.90;96415.06;5064114;28;19971;-86
2024/03/29 12:14:14;;;;;;;;;;;;;;;12.85;62.01;96398.22;5068029;28;19924;-85
2024/03/29 12:17:01;;;;;;;;;;;;;;;12.83;62.38;96394.28;5065983;28;19957;-85
2024/03/29 12:19:50;;;;;;;;;;;;;;;12.92;61.53;96399.50;5078032;28;19924;-86
2024/03/29 12:22:37;;;;;;;;;;;;;;;12.92;61.75;96403.00;5056738;28;19973;-85
2024/03/29 12:25:24;;;;;;;;;;;;;;;13.02;62.69;96409.78;5067064;28;19928;-82
2024/03/29 12:28:11;;;;;;;;;;;;;;;13.13;61.24;96409.97;5053630;28;19924;-82
2024/03/29 12:31:00;;;;;;;;;;;;;;;13.21;61.01;96400.75;5055737;28;19924;-83
2024/03/29 12:33:56;;;;;;;;;;;;;;;13.18;59.95;96390.59;5057507;28;20018;-83
2024/03/29 12:36:47;;;;;;;;;;;;;;;13.22;60.66;96375.09;5071036;28;19986;-82
2024/03/29 12:39:35;;;;;;;;;;;;;;;13.31;60.56;96367.44;5071411;28;20410;-84
2024/03/29 12:42:22;;;;;;;;;;;;;;;13.41;61.11;96366.03;5063555;28;19928;-82
2024/03/29 12:45:10;;;;;;;;;;;;;;;13.55;59.42;96369.75;5062616;28;20298;-79
2024/03/29 12:48:00;;;;;;;;;;;;;;;13.59;58.95;96362.41;5068804;28;19936;-79
2024/03/29 12:50:48;;;;;;;;;;;;;;;13.67;58.51;96351.59;5056217;28;19970;-79
2024/03/29 12:53:37;;;;;;;;;;;;;;;13.75;59.00;96345.09;5069188;28;19931;-79
2024/03/29 12:56:24;;;;;;;;;;;;;;;13.84;57.88;96334.66;5060683;28;20446;-79
2024/03/29 12:59:12;;;;;;;;;;;;;;;13.93;57.80;96337.13;5061775;28;19925;-80
2024/03/29 13:01:59;;;;;;;;;;;;;;;13.98;57.76;96334.06;5066932;28;19924;-81
2024/03/29 13:04:47;;;;;;;;;;;;;;;14.15;57.67;96339.72;5060377;28;19925;-81
2024/03/29 13:07:34;;;;;;;;;;;;;;;14.32;56.79;96348.50;5062140;28;19935;-81
2024/03/29 13:10:22;;;;;;;;;;;;;;;14.42;56.34;96353.28;5087907;28;20555;-81
2024/03/29 13:13:09;;;;;;;;;;;;;;;14.53;56.39;96347.97;5065814;28;19925;-81
2024/03/29 13:15:56;;;;;;;;;;;;;;;14.67;56.85;96351.63;5057204;28;20303;-81
2024/03/29 13:18:46;;;;;;;;;;;;;;;14.81;55.63;96351.00;5072212;28;19924;-88
2024/03/29 13:21:36;;;;;;;;;;;;;;;14.80;55.38;96341.19;5086097;28;19924;-88
2024/03/29 13:24:24;;;;;;;;;;;;;;;14.91;55.07;96353.03;5066548;28;19924;-89
2024/03/29 13:27:12;;;;;;;;;;;;;;;14.99;54.34;96351.16;5067147;28;19932;-89
2024/03/29 13:29:59;;;;;;;;;;;;;;;15.01;54.81;96350.75;5069254;28;19974;-89
2024/03/29 13:32:47;;;;;;;;;;;;;;;15.00;54.88;96343.72;5081295;28;19923;-76
2024/03/29 13:35:35;;;;;;;;;;;;;;;15.04;55.30;96344.53;5058101;28;20066;-77
2024/03/29 13:38:26;;;;;;;;;;;;;;;15.14;53.83;96344.63;5060842;28;19928;-77
2024/03/29 13:41:16;;;;;;;;;;;;;;;15.14;53.64;96341.09;5063062;28;19931;-77
2024/03/29 13:44:05;;;;;;;;;;;;;;;15.25;53.40;96343.94;5058049;28;19924;-77
2024/03/29 13:46:53;;;;;;;;;;;;;;;15.32;53.10;96343.97;5068476;28;19924;-76
2024/03/29 13:49:40;;;;;;;;;;;;;;;15.35;52.99;96338.53;5067893;28;19924;-79
2024/03/29 13:52:27;;;;;;;;;;;;;;;15.30;52.14;96346.31;5071012;28;19931;-79
2024/03/29 13:55:16;;;;;;;;;;;;;;;15.32;52.48;96343.97;5066389;28;20323;-78
2024/03/29 13:58:03;;;;;;;;;;;;;;;15.34;52.64;96327.94;5076347;28;19924;-80
2024/03/29 14:00:54;;;;;;;;;;;;;;;15.45;52.90;96321.41;5071247;28;19972;-79
2024/03/29 14:03:41;;;;;;;;;;;;;;;15.44;51.90;96316.28;5059082;28;19928;-79
2024/03/29 14:06:28;;;;;;;;;;;;;;;15.32;52.34;96308.41;5071992;28;19931;-81
2024/03/29 14:09:16;;;;;;;;;;;;;;;15.32;52.63;96300.97;5070632;28;20429;-80
2024/03/29 14:12:04;;;;;;;;;;;;;;;15.32;53.13;96316.59;5078117;28;19924;-79
2024/03/29 14:14:53;;;;;;;;;;;;;;;15.34;54.21;96315.06;5078793;28;20371;-82
2024/03/29 14:17:40;;;;;;;;;;;;;;;15.42;52.91;96310.41;5057864;28;19924;-81
2024/03/29 14:20:27;;;;;;;;;;;;;;;15.45;52.85;96312.41;5068080;28;20555;-81
2024/03/29 14:23:18;;;;;;;;;;;;;;;15.45;51.54;96317.88;5065058;28;19931;-81
2024/03/29 14:26:05;;;;;;;;;;;;;;;15.48;52.06;96339.00;5071376;28;19928;-81
2024/03/29 14:28:54;;;;;;;;;;;;;;;15.48;52.57;96343.69;5080486;28;19925;-80
2024/03/29 14:31:44;;;;;;;;;;;;;;;15.55;52.32;96368.34;5065476;28;19924;-80
2024/03/29 14:34:34;;;;;;;;;;;;;;;15.49;51.51;96384.34;5077076;28;20010;-81
2024/03/29 14:37:23;;;;;;;;;;;;;;;15.58;52.25;96390.28;5064224;28;19925;-76
2024/03/29 14:40:12;;;;;;;;;;;;;;;15.65;52.00;96378.63;5076150;28;19947;-76
2024/03/29 14:42:59;;;;;;;;;;;;;;;15.68;52.26;96389.59;5069646;28;19929;-76
2024/03/29 14:45:49;;;;;;;;;;;;;;;15.84;51.69;96380.31;5062686;28;20391;-76
2024/03/29 14:48:36;;;;;;;;;;;;;;;15.97;49.74;96381.53;5067677;28;19924;-77
2024/03/29 14:51:23;;;;;;;;;;;;;;;15.95;49.00;96370.97;5066665;28;19924;-76
2024/03/29 14:54:11;;;;;;;;;;;;;;;15.96;48.77;96375.28;5068162;28;19959;-77
2024/03/29 14:56:58;;;;;;;;;;;;;;;15.85;50.27;96381.88;5073909;28;19952;-77
2024/03/29 14:59:45;;;;;;;;;;;;;;;15.88;50.63;96375.66;5076772;28;19928;-76
2024/03/29 15:02:34;;;;;;;;;;;;;;;15.88;50.26;96370.19;5052641;28;20302;-76
2024/03/29 15:05:21;;;;;;;;;;;;;;;15.90;50.96;96370.56;5060958;28;19924;-76
2024/03/29 15:08:16;;;;;;;;;;;;;;;15.95;50.24;96364.72;5061941;28;19980;-83
2024/03/29 15:11:04;;;;;;;;;;;;;;;15.93;48.91;96361.59;5071196;28;20380;-81
2024/03/29 15:13:52;;;;;;;;;;;;;;;15.92;48.77;96354.53;5071012;28;19924;-83
2024/03/29 15:16:39;;;;;;;;;;;;;;;15.90;48.83;96348.66;5060299;28;19932;-83
2024/03/29 15:19:28;;;;;;;;;;;;;;;15.89;48.95;96347.88;5044795;28;19924;-83
2024/03/29 15:22:16;;;;;;;;;;;;;;;15.87;49.45;96349.41;5059513;28;19925;-83
2024/03/29 15:25:06;;;;;;;;;;;;;;;15.84;49.40;96344.72;5076235;28;20007;-83
2024/03/29 15:30:59;;;;;;;;;;;;;;;15.83;49.81;96329.47;5055372;28;19933;-76
2024/03/29 15:33:47;;;;;;;;;;;;;;;15.78;50.54;96333.34;5057513;28;20007;-76
2024/03/29 15:36:35;;;;;;;;;;;;;;;15.69;51.19;96330.94;5066161;28;19924;-76
2024/03/29 15:39:24;;;;;;;;;;;;;;;15.70;51.43;96332.50;5057226;28;19943;-76
2024/03/29 15:42:11;;;;;;;;;;;;;;;15.70;52.34;96326.25;5064563;28;20352;-79
2024/03/29 15:44:58;;;;;;;;;;;;;;;15.76;52.45;96332.16;5061754;28;19924;-78
2024/03/29 15:47:46;;;;;;;;;;;;;;;15.77;53.67;96331.00;5055448;28;19929;-79
2024/03/29 15:50:34;;;;;;;;;;;;;;;15.70;53.30;96324.28;5057993;28;19931;-79
2024/03/29 15:53:22;;;;;;;;;;;;;;;15.73;53.04;96330.19;5057470;28;19925;-79
2024/03/29 15:56:09;;;;;;;;;;;;;;;15.66;53.69;96337.19;5061738;28;19925;-78
2024/03/29 15:58:59;;;;;;;;;;;;;;;15.63;53.76;96332.47;5067774;28;19970;-87
2024/03/29 16:01:46;;;;;;;;;;;;;;;15.60;53.91;96333.19;5051640;28;19955;-85
2024/03/29 16:04:33;;;;;;;;;;;;;;;15.63;54.75;96342.66;5056923;28;19924;-87
2024/03/29 16:07:20;;;;;;;;;;;;;;;15.66;53.99;96331.72;5061869;28;19924;-88
2024/03/29 16:10:09;;;;;;;;;;;;;;;15.75;52.77;96330.56;5060309;28;19925;-88
2024/03/29 16:12:58;;;;;;;;;;;;;;;15.80;51.82;96325.53;5058770;28;19924;-87
2024/03/29 16:15:45;;;;;;;;;;;;;;;15.82;52.33;96323.19;5057383;28;19924;-77
2024/03/29 16:18:32;;;;;;;;;;;;;;;15.87;52.65;96320.09;5057681;28;19932;-76
2024/03/29 16:21:19;;;;;;;;;;;;;;;16.04;52.71;96310.38;5064357;28;19925;-76
2024/03/29 16:24:06;;;;;;;;;;;;;;;15.95;51.83;96318.16;5063400;28;19936;-76
2024/03/29 16:26:53;;;;;;;;;;;;;;;16.06;51.29;96310.78;5078294;28;20284;-79
2024/03/29 16:29:42;;;;;;;;;;;;;;;16.14;51.21;96309.63;5053723;28;20383;-78
2024/03/29 16:32:29;;;;;;;;;;;;;;;16.11;50.88;96304.91;5061726;28;20009;-81